createdAt,value
2023-01-18T18:52:00.358Z,-0.49
2023-01-18T18:54:28.417Z,-0.59
2023-01-18T18:56:56.663Z,-0.85
2023-01-18T18:59:24.725Z,-1.00
2023-01-18T19:01:53.001Z,-1.15
2023-01-18T19:04:21.026Z,-1.23
2023-01-18T19:06:49.091Z,-1.35
2023-01-18T19:09:18.785Z,-1.30
2023-01-18T19:11:54.766Z,-1.45
2023-01-18T19:14:25.822Z,-1.53
2023-01-18T19:16:54.498Z,-1.46
2023-01-18T19:19:23.147Z,-1.57
2023-01-18T19:21:52.140Z,-1.67
2023-01-18T19:24:21.976Z,-1.90
2023-01-18T19:26:55.314Z,-2.17
2023-01-18T19:29:28.517Z,-2.07
2023-01-18T19:31:59.935Z,-2.27
2023-01-18T19:34:28.243Z,-1.98
2023-01-18T19:36:56.274Z,-2.08
2023-01-18T19:39:26.284Z,-2.54
2023-01-18T19:41:54.543Z,-2.19
2023-01-18T19:44:23.269Z,-2.14
2023-01-18T19:46:56.093Z,-2.47
2023-01-18T19:49:25.930Z,-2.53
2023-01-18T19:51:54.646Z,-2.20
2023-01-18T19:54:28.762Z,-2.13
2023-01-18T19:56:56.668Z,-2.21
2023-01-18T19:59:33.647Z,-2.48
2023-01-18T20:02:01.818Z,-2.55
2023-01-18T20:04:30.189Z,-2.60
2023-01-18T20:06:58.705Z,-2.25
2023-01-18T20:09:42.356Z,-2.27
2023-01-18T20:12:12.684Z,-2.47
2023-01-18T20:14:42.583Z,-2.26
2023-01-18T20:17:11.873Z,-2.30
2023-01-18T20:19:40.222Z,-1.83
2023-01-18T20:24:58.021Z,-2.17
2023-01-18T20:27:26.683Z,-2.59
2023-01-18T20:29:54.640Z,-2.35
2023-01-18T20:32:22.741Z,-2.81
2023-01-18T20:34:50.973Z,-2.51
2023-01-18T20:37:19.166Z,-2.80
2023-01-18T20:39:47.472Z,-2.74
2023-01-18T20:42:17.475Z,-2.71
2023-01-18T20:44:49.241Z,-3.06
2023-01-18T20:47:22.779Z,-3.20
2023-01-18T20:49:50.823Z,-3.26
2023-01-18T20:52:19.283Z,-2.96
2023-01-18T20:54:50.301Z,-2.86
2023-01-18T20:57:27.317Z,-2.98
2023-01-18T20:59:55.614Z,-3.19
2023-01-18T21:02:24.313Z,-3.26
2023-01-18T21:04:52.998Z,-3.29
2023-01-18T21:07:21.403Z,-2.89
2023-01-18T21:09:49.669Z,-3.04
2023-01-18T21:12:19.099Z,-2.90
2023-01-18T21:14:47.816Z,-3.01
2023-01-18T21:17:15.900Z,-2.87
2023-01-18T21:19:50.257Z,-3.08
2023-01-18T21:22:18.405Z,-3.11
2023-01-18T21:24:47.259Z,-2.75
2023-01-18T21:27:16.967Z,-2.79
2023-01-18T21:29:46.771Z,-2.56
2023-01-18T21:32:18.103Z,-2.31
2023-01-18T21:34:52.944Z,-2.26
2023-01-18T21:37:21.036Z,-2.41
2023-01-18T21:39:49.297Z,-2.49
2023-01-18T21:42:35.062Z,-2.39
2023-01-18T21:45:22.185Z,-2.93
2023-01-18T21:47:52.887Z,-2.83
2023-01-18T21:50:38.595Z,-2.84
2023-01-18T21:53:34.622Z,-3.00
2023-01-18T21:56:02.961Z,-3.25
2023-01-18T21:58:48.746Z,-3.00
2023-01-18T22:01:23.158Z,-3.09
2023-01-18T22:04:09.548Z,-3.22
2023-01-18T22:06:39.497Z,-3.34
2023-01-18T22:09:08.018Z,-3.57
2023-01-18T22:11:36.650Z,-3.54
2023-01-18T22:14:07.870Z,-3.70
2023-01-18T22:16:38.376Z,-3.67
2023-01-18T22:19:09.448Z,-3.55
2023-01-18T22:21:38.015Z,-3.55
2023-01-18T22:24:06.945Z,-3.66
2023-01-18T22:26:36.427Z,-3.68
2023-01-18T22:29:07.202Z,-3.34
2023-01-18T22:31:37.154Z,-3.58
2023-01-18T22:34:06.248Z,-3.59
2023-01-18T22:36:43.764Z,-3.55
2023-01-18T22:39:12.791Z,-3.46
2023-01-18T22:41:41.028Z,-3.37
2023-01-18T22:44:09.664Z,-3.38
2023-01-18T22:46:39.190Z,-3.38
2023-01-18T22:49:07.500Z,-3.42
2023-01-18T22:51:35.850Z,-3.49
2023-01-18T22:54:03.880Z,-3.66
2023-01-18T22:56:32.004Z,-3.62
2023-01-18T22:59:02.920Z,-3.51
2023-01-18T23:01:33.828Z,-3.68
2023-01-18T23:04:04.771Z,-3.52
2023-01-18T23:06:42.585Z,-3.52
2023-01-18T23:09:11.505Z,-3.92
2023-01-18T23:11:40.763Z,-3.41
2023-01-18T23:14:26.393Z,-3.70
2023-01-18T23:17:11.875Z,-3.39
2023-01-18T23:19:41.619Z,-3.51
2023-01-18T23:22:10.601Z,-3.30
2023-01-18T23:24:39.924Z,-3.34
2023-01-18T23:27:14.011Z,-3.46
2023-01-18T23:29:42.128Z,-3.63
2023-01-18T23:32:10.508Z,-3.47
2023-01-18T23:34:39.228Z,-3.49
2023-01-18T23:37:09.188Z,-3.81
2023-01-18T23:39:54.619Z,-3.50
2023-01-18T23:42:40.037Z,-3.42
2023-01-18T23:45:27.346Z,-3.39
2023-01-18T23:51:42.000Z,-3.86
2023-01-18T23:54:15.977Z,-3.46
2023-01-18T23:56:48.596Z,-3.71
2023-01-18T23:59:16.862Z,-3.65
